createdAt,value
2023-03-24T00:01:08.764Z,100041.72
2023-03-24T00:04:13.983Z,100030.41
2023-03-24T00:07:19.403Z,100035.81
2023-03-24T00:10:23.642Z,100033.13
2023-03-24T00:13:27.538Z,100027.97
2023-03-24T00:16:34.944Z,100017.56
2023-03-24T00:19:39.180Z,100003.63
2023-03-24T00:22:50.761Z,99998.38
2023-03-24T00:26:03.202Z,99989.38
2023-03-24T00:29:09.070Z,99986.34
2023-03-24T00:32:12.979Z,99973.44
2023-03-24T00:35:17.988Z,99977.81
2023-03-24T00:38:23.325Z,99973.50
2023-03-24T00:41:27.562Z,99963.81
2023-03-24T00:44:31.137Z,99961.41
2023-03-24T00:47:38.651Z,99954.47
2023-03-24T00:50:47.764Z,99948.38
2023-03-24T00:53:57.912Z,99941.94
2023-03-24T00:57:03.249Z,99936.06
2023-03-24T01:00:14.355Z,99923.09
2023-03-24T01:03:19.538Z,99918.03
2023-03-24T01:06:23.665Z,99915.41
2023-03-24T01:09:28.690Z,99910.16
2023-03-24T01:12:37.033Z,99907.16
2023-03-24T01:15:40.524Z,99905.38
2023-03-24T01:18:45.053Z,99897.69
2023-03-24T01:21:50.972Z,99887.06
2023-03-24T01:24:56.023Z,99867.97
2023-03-24T01:27:59.853Z,99867.19
2023-03-24T01:31:03.374Z,99868.94
2023-03-24T01:34:07.016Z,99862.00
2023-03-24T01:37:10.643Z,99865.34
2023-03-24T01:40:20.859Z,99861.00
2023-03-24T01:43:31.106Z,99848.88
2023-03-24T01:46:34.673Z,99842.06
2023-03-24T01:49:44.373Z,99836.59
2023-03-24T01:52:47.975Z,99834.81
2023-03-24T01:55:54.292Z,99826.97
2023-03-24T01:59:03.535Z,99814.50
2023-03-24T02:02:08.377Z,99812.81
2023-03-24T02:05:15.122Z,99799.63
2023-03-24T02:08:29.469Z,99800.56
2023-03-24T02:11:37.345Z,99790.84
2023-03-24T02:14:41.300Z,99789.06
2023-03-24T02:18:01.061Z,99777.59
2023-03-24T02:21:44.890Z,99790.63
2023-03-24T02:25:37.096Z,99771.38
2023-03-24T02:28:57.041Z,99760.91
2023-03-24T02:32:24.889Z,99753.81
2023-03-24T02:36:05.027Z,99748.59
2023-03-24T02:40:08.034Z,99743.19
2023-03-24T02:43:28.457Z,99737.94
2023-03-24T02:46:43.551Z,99722.22
2023-03-24T02:50:01.453Z,99714.28
2023-03-24T02:53:16.650Z,99711.44
2023-03-24T02:56:30.175Z,99704.56
2023-03-24T02:59:41.971Z,99690.47
2023-03-24T03:02:51.970Z,99688.63
2023-03-24T03:06:02.241Z,99685.06
2023-03-24T03:09:11.974Z,99678.00
2023-03-24T03:12:19.171Z,99682.25
2023-03-24T03:15:29.290Z,99672.69
2023-03-24T03:18:41.052Z,99666.34
2023-03-24T03:21:49.683Z,99662.72
2023-03-24T03:24:57.581Z,99652.00
2023-03-24T03:28:06.129Z,99645.94
2023-03-24T03:31:18.140Z,99638.66
2023-03-24T03:34:36.018Z,99637.47
2023-03-24T03:37:51.321Z,99633.69
2023-03-24T03:40:59.431Z,99627.44
2023-03-24T03:44:03.376Z,99624.72
2023-03-24T03:47:08.730Z,99622.97
2023-03-24T03:50:12.876Z,99616.78
2023-03-24T03:53:23.116Z,99619.41
2023-03-24T03:56:30.359Z,99606.38
2023-03-24T03:59:36.890Z,99611.47
2023-03-24T04:03:05.420Z,99604.53
2023-03-24T04:06:25.348Z,99604.47
2023-03-24T04:09:47.040Z,99607.06
2023-03-24T04:13:20.123Z,99603.28
2023-03-24T04:16:40.619Z,99601.50
2023-03-24T04:20:05.708Z,99596.25
2023-03-24T04:23:26.349Z,99596.25
2023-03-24T04:26:41.521Z,99603.03
2023-03-24T04:29:58.298Z,99586.03
2023-03-24T04:33:08.702Z,99579.03
2023-03-24T04:36:22.392Z,99578.94
2023-03-24T04:39:30.347Z,99580.38
2023-03-24T04:42:38.912Z,99580.53
2023-03-24T04:45:43.337Z,99573.25
2023-03-24T04:48:48.259Z,99571.41
2023-03-24T04:51:54.060Z,99574.78
2023-03-24T04:54:57.704Z,99568.59
2023-03-24T04:58:01.225Z,99561.38
2023-03-24T05:01:06.033Z,99558.53
2023-03-24T05:04:09.982Z,99561.91
2023-03-24T05:07:15.373Z,99558.19
2023-03-24T05:10:21.745Z,99553.72
2023-03-24T05:13:25.701Z,99552.09
2023-03-24T05:16:29.264Z,99563.28
2023-03-24T05:19:33.047Z,99554.72
2023-03-24T05:22:38.267Z,99555.56
2023-03-24T05:25:44.413Z,99563.59
2023-03-24T05:28:55.702Z,99563.59
2023-03-24T05:31:59.196Z,99573.16
2023-03-24T05:35:02.972Z,99568.84
2023-03-24T05:38:07.957Z,99572.22
2023-03-24T05:41:11.605Z,99573.16
2023-03-24T05:44:15.620Z,99574.72
2023-03-24T05:47:20.361Z,99570.22
2023-03-24T05:50:24.579Z,99583.25
2023-03-24T05:53:29.504Z,99572.75
2023-03-24T05:56:33.285Z,99580.72
2023-03-24T05:59:38.074Z,99580.53
2023-03-24T06:02:41.779Z,99583.94
2023-03-24T06:05:48.112Z,99582.97
2023-03-24T06:08:54.855Z,99604.84
2023-03-24T06:11:58.698Z,99630.91
2023-03-24T06:15:02.310Z,99636.16
2023-03-24T06:18:05.967Z,99648.09
2023-03-24T06:21:09.738Z,99642.31
2023-03-24T06:24:15.478Z,99630.78
2023-03-24T06:27:21.741Z,99646.69
2023-03-24T06:30:25.205Z,99651.28
2023-03-24T06:33:28.668Z,99655.28
2023-03-24T06:36:34.623Z,99661.22
2023-03-24T06:39:39.628Z,99667.41
2023-03-24T06:42:43.493Z,99685.94
2023-03-24T06:45:47.401Z,99688.81
2023-03-24T06:48:51.221Z,99697.84
2023-03-24T06:51:55.086Z,99714.16
2023-03-24T06:54:59.918Z,99721.09
2023-03-24T06:58:03.503Z,99715.09
2023-03-24T07:01:07.316Z,99711.25
2023-03-24T07:04:11.368Z,99723.91
2023-03-24T07:07:41.491Z,99734.72
2023-03-24T07:10:41.100Z,99732.25
2023-03-24T07:13:44.794Z,99746.81
2023-03-24T07:16:48.470Z,99758.81
2023-03-24T07:19:53.184Z,99765.16
2023-03-24T07:22:57.936Z,99764.47
2023-03-24T07:26:02.911Z,99772.38
2023-03-24T07:29:06.882Z,99778.72
2023-03-24T07:32:10.951Z,99769.22
2023-03-24T07:35:14.728Z,99770.59
2023-03-24T07:38:18.372Z,99785.06
2023-03-24T07:41:24.599Z,99791.41
2023-03-24T07:44:28.153Z,99797.72
2023-03-24T07:47:31.673Z,99794.31
2023-03-24T07:50:35.156Z,99799.72
2023-03-24T07:53:38.769Z,99814.25
2023-03-24T07:56:43.662Z,99808.47
2023-03-24T07:59:47.136Z,99813.03
2023-03-24T08:02:53.793Z,99830.81
2023-03-24T08:05:57.654Z,99829.72
2023-03-24T08:09:01.417Z,99838.34
2023-03-24T08:12:13.794Z,99844.19
2023-03-24T08:15:23.848Z,99835.88
2023-03-24T08:18:28.177Z,99851.56
2023-03-24T08:21:32.080Z,99846.19
2023-03-24T08:24:37.986Z,99865.03
2023-03-24T08:27:44.893Z,99858.97
2023-03-24T08:30:49.008Z,99869.47
2023-03-24T08:33:54.872Z,99877.06
2023-03-24T08:36:58.381Z,99875.78
2023-03-24T08:40:05.522Z,99874.72
2023-03-24T08:43:16.097Z,99863.03
2023-03-24T08:46:19.644Z,99879.16
2023-03-24T08:49:23.269Z,99882.13
2023-03-24T08:52:27.006Z,99891.44
2023-03-24T08:55:30.936Z,99897.81
2023-03-24T08:58:36.350Z,99904.09
2023-03-24T09:01:40.786Z,99896.09
2023-03-24T09:04:45.960Z,99909.66
2023-03-24T09:07:51.137Z,99907.50
2023-03-24T09:10:54.689Z,99917.31
2023-03-24T09:13:59.629Z,99915.53
2023-03-24T09:17:03.195Z,99916.06
2023-03-24T09:20:11.659Z,99917.28
2023-03-24T09:23:16.242Z,99913.31
2023-03-24T09:26:19.797Z,99926.41
2023-03-24T09:29:24.697Z,99909.50
2023-03-24T09:32:28.370Z,99911.56
2023-03-24T09:35:31.920Z,99924.28
2023-03-24T09:38:36.060Z,99919.97
2023-03-24T09:41:39.635Z,99925.81
2023-03-24T09:44:52.309Z,99930.81
2023-03-24T09:48:04.659Z,99926.28
2023-03-24T09:51:14.731Z,99924.75
2023-03-24T09:54:27.801Z,99918.72
2023-03-24T09:57:39.452Z,99922.41
2023-03-24T10:00:46.634Z,99908.28
2023-03-24T10:03:50.591Z,99920.28
2023-03-24T10:07:02.650Z,99931.84
2023-03-24T10:10:27.398Z,99925.16
2023-03-24T10:13:45.073Z,99939.47
2023-03-24T10:16:59.292Z,99934.72
2023-03-24T10:20:17.047Z,99938.13
2023-03-24T10:23:34.939Z,99949.34
2023-03-24T10:26:50.681Z,99965.00
2023-03-24T10:30:02.505Z,99971.59
2023-03-24T10:33:07.588Z,99967.94
2023-03-24T10:36:14.999Z,99983.13
2023-03-24T10:39:21.133Z,99966.34
2023-03-24T10:42:37.568Z,99976.84
2023-03-24T10:45:46.213Z,99974.50
2023-03-24T10:48:54.458Z,99977.72
2023-03-24T10:52:04.658Z,99972.97
2023-03-24T10:55:15.140Z,99975.16
2023-03-24T10:58:30.633Z,99972.22
2023-03-24T11:01:35.341Z,99976.69
2023-03-24T11:04:44.998Z,99976.13
2023-03-24T11:07:51.760Z,99978.97
2023-03-24T11:10:57.034Z,99982.00
2023-03-24T11:14:03.532Z,99983.16
2023-03-24T11:17:16.259Z,99986.88
2023-03-24T11:20:28.806Z,99988.94
2023-03-24T11:23:35.905Z,99997.50
2023-03-24T11:26:42.089Z,100007.66
2023-03-24T11:29:49.903Z,100001.56
2023-03-24T11:32:56.466Z,100003.19
2023-03-24T11:36:05.832Z,100012.66
2023-03-24T11:39:15.345Z,100011.81
2023-03-24T11:42:19.626Z,100012.97
2023-03-24T11:45:35.587Z,99999.91
2023-03-24T11:48:49.940Z,100004.75
2023-03-24T11:51:57.192Z,99994.88
2023-03-24T11:55:00.948Z,100016.03
2023-03-24T11:58:14.024Z,100017.69
2023-03-24T12:01:33.098Z,100011.66
2023-03-24T12:05:12.334Z,100008.94
2023-03-24T12:08:46.322Z,100015.44
2023-03-24T12:12:20.913Z,100016.69
2023-03-24T12:15:41.268Z,100023.25
2023-03-24T12:19:16.387Z,100008.44
2023-03-24T12:22:39.296Z,100019.56
2023-03-24T12:26:19.068Z,100017.03
2023-03-24T12:29:59.441Z,100018.66
2023-03-24T12:33:27.211Z,100033.16
2023-03-24T12:36:47.676Z,100018.34
2023-03-24T12:40:10.293Z,100002.81
2023-03-24T12:43:32.002Z,100016.56
2023-03-24T12:46:50.425Z,100008.66
2023-03-24T12:50:25.620Z,100016.19
2023-03-24T12:54:00.914Z,100013.50
2023-03-24T12:57:13.049Z,100003.91
2023-03-24T13:00:25.998Z,100017.25
2023-03-24T13:03:38.782Z,100008.06
2023-03-24T13:06:53.247Z,100009.03
2023-03-24T13:10:05.357Z,99987.41
2023-03-24T13:13:18.333Z,100009.03
2023-03-24T13:16:30.918Z,99997.72
2023-03-24T13:19:37.177Z,99992.34
2023-03-24T13:22:42.536Z,99994.88
2023-03-24T13:25:55.222Z,99995.31
2023-03-24T13:29:21.162Z,99991.63
2023-03-24T13:32:36.131Z,99978.63
2023-03-24T13:36:08.690Z,99975.28
2023-03-24T13:39:18.092Z,99980.78
2023-03-24T13:42:34.072Z,99990.75
2023-03-24T13:45:47.814Z,99992.63
2023-03-24T13:48:58.251Z,99984.34
2023-03-24T13:52:07.658Z,99990.78
2023-03-24T13:55:16.769Z,99989.81
2023-03-24T13:58:24.478Z,99992.44
2023-03-24T14:01:39.620Z,99996.78
2023-03-24T14:04:49.964Z,99983.59
2023-03-24T14:08:18.476Z,99994.16
2023-03-24T14:11:49.467Z,99995.25
2023-03-24T14:15:20.490Z,99983.72
2023-03-24T14:18:44.184Z,99985.94
2023-03-24T14:22:00.505Z,99974.25
2023-03-24T14:25:22.042Z,99980.03
2023-03-24T14:28:34.916Z,99983.44
2023-03-24T14:31:38.532Z,99987.56
2023-03-24T14:34:54.277Z,99993.66
2023-03-24T14:38:04.494Z,99986.97
2023-03-24T14:41:14.666Z,99995.28
2023-03-24T14:45:03.014Z,99989.72
2023-03-24T14:48:24.617Z,99987.56
2023-03-24T14:51:40.089Z,99987.69
2023-03-24T14:54:53.660Z,99986.34
2023-03-24T14:58:03.493Z,99984.00
2023-03-24T15:01:11.022Z,99988.50
2023-03-24T15:04:14.718Z,99992.63
2023-03-24T15:07:18.194Z,99995.47
2023-03-24T15:10:23.341Z,99992.06
2023-03-24T15:13:40.416Z,99992.63
2023-03-24T15:16:52.004Z,99981.81
2023-03-24T15:19:56.478Z,99981.50
2023-03-24T15:23:08.915Z,99990.94
2023-03-24T15:26:16.305Z,100001.13
2023-03-24T15:29:20.634Z,99992.72
2023-03-24T15:32:27.555Z,99995.97
2023-03-24T15:35:35.788Z,99997.22
2023-03-24T15:38:47.800Z,99995.47
2023-03-24T15:41:53.967Z,99994.44
2023-03-24T15:45:08.422Z,99986.69
2023-03-24T15:48:19.298Z,100003.88
2023-03-24T15:51:53.930Z,100004.69
2023-03-24T15:55:01.872Z,100005.47
2023-03-24T15:58:24.231Z,100014.19
2023-03-24T16:01:36.214Z,100010.97
2023-03-24T16:04:41.965Z,100005.97
2023-03-24T16:07:57.102Z,100023.25
2023-03-24T16:11:05.109Z,100003.84
2023-03-24T16:14:23.729Z,100000.94
2023-03-24T16:17:27.353Z,100000.19
2023-03-24T16:20:30.898Z,99996.38
2023-03-24T16:23:35.899Z,100002.13
2023-03-24T16:26:39.472Z,100001.97
2023-03-24T16:29:43.308Z,99999.91
2023-03-24T16:32:46.813Z,100003.78
2023-03-24T16:35:51.133Z,100011.75
2023-03-24T16:38:58.680Z,100009.31
2023-03-24T16:42:02.218Z,100004.25
2023-03-24T16:45:06.949Z,100010.53
2023-03-24T16:48:12.425Z,100017.03
2023-03-24T16:51:18.101Z,100011.88
2023-03-24T16:54:22.987Z,100002.84
2023-03-24T16:57:26.605Z,100013.38
2023-03-24T17:00:30.650Z,100007.19
2023-03-24T17:03:35.673Z,100021.09
2023-03-24T17:06:42.970Z,100013.53
2023-03-24T17:09:50.061Z,100014.81
2023-03-24T17:12:57.667Z,100022.28
2023-03-24T17:16:01.376Z,100024.19
2023-03-24T17:19:05.113Z,100015.47
2023-03-24T17:22:11.261Z,100014.94
2023-03-24T17:25:21.264Z,100018.63
2023-03-24T17:28:24.811Z,100021.41
2023-03-24T17:31:28.549Z,100027.03
2023-03-24T17:34:32.194Z,100026.47
2023-03-24T17:37:36.905Z,100031.69
2023-03-24T17:40:41.848Z,100044.25
2023-03-24T17:43:47.637Z,100042.19
2023-03-24T17:46:51.392Z,100044.13
2023-03-24T17:49:55.236Z,100052.06
2023-03-24T17:53:00.634Z,100048.13
2023-03-24T17:56:07.144Z,100053.84
2023-03-24T17:59:10.670Z,100055.00
2023-03-24T18:02:14.997Z,100048.31
2023-03-24T18:05:18.739Z,100051.22
2023-03-24T18:08:22.354Z,100049.66
2023-03-24T18:11:27.309Z,100058.47
2023-03-24T18:14:30.943Z,100064.75
2023-03-24T18:17:34.518Z,100069.41
2023-03-24T18:20:39.307Z,100067.63
2023-03-24T18:23:42.846Z,100080.19
2023-03-24T18:26:49.248Z,100084.75
2023-03-24T18:29:54.083Z,100092.16
2023-03-24T18:33:01.283Z,100085.44
2023-03-24T18:36:06.020Z,100086.47
2023-03-24T18:39:10.825Z,100091.03
2023-03-24T18:42:16.220Z,100087.72
2023-03-24T18:45:19.900Z,100087.50
2023-03-24T18:48:23.985Z,100087.38
2023-03-24T18:51:28.286Z,100089.94
2023-03-24T18:54:31.883Z,100085.88
2023-03-24T18:57:37.237Z,100080.56
2023-03-24T19:00:41.301Z,100083.59
2023-03-24T19:03:46.029Z,100089.22
2023-03-24T19:06:50.452Z,100091.22
2023-03-24T19:09:54.289Z,100095.63
2023-03-24T19:12:59.372Z,100098.56
2023-03-24T19:16:04.363Z,100096.19
2023-03-24T19:19:08.206Z,100096.44
2023-03-24T19:22:11.723Z,100097.50
2023-03-24T19:25:16.160Z,100093.28
2023-03-24T19:28:21.490Z,100094.31
2023-03-24T19:31:25.234Z,100102.31
2023-03-24T19:34:28.780Z,100097.91
2023-03-24T19:37:33.178Z,100101.34
2023-03-24T19:40:37.004Z,100097.19
2023-03-24T19:43:42.732Z,100104.28
2023-03-24T19:46:46.281Z,100106.84
2023-03-24T19:49:49.924Z,100114.75
2023-03-24T19:52:53.648Z,100106.22
2023-03-24T19:55:58.984Z,100105.72
2023-03-24T19:59:04.004Z,100103.03
2023-03-24T20:02:07.670Z,100095.09
2023-03-24T20:05:12.115Z,100079.91
2023-03-24T20:08:16.078Z,100083.19
2023-03-24T20:11:19.675Z,100083.03
2023-03-24T20:14:24.815Z,100092.50
2023-03-24T20:17:29.603Z,100081.91
2023-03-24T20:20:33.375Z,100085.91
2023-03-24T20:23:36.942Z,100078.13
2023-03-24T20:26:40.740Z,100073.69
2023-03-24T20:29:46.484Z,100065.97
2023-03-24T20:32:50.173Z,100069.00
2023-03-24T20:35:53.870Z,100067.34
2023-03-24T20:38:59.648Z,100060.50
2023-03-24T20:42:04.008Z,100060.66
2023-03-24T20:45:11.725Z,100062.63
2023-03-24T20:48:15.480Z,100051.34
2023-03-24T20:51:19.445Z,100047.94
2023-03-24T20:54:23.123Z,100054.44
2023-03-24T20:57:26.914Z,100054.22
2023-03-24T21:00:31.913Z,100051.81
2023-03-24T21:03:36.428Z,100049.34
2023-03-24T21:06:40.060Z,100044.38
2023-03-24T21:09:43.645Z,100047.03
2023-03-24T21:12:54.494Z,100048.91
2023-03-24T21:15:59.800Z,100049.72
2023-03-24T21:19:03.805Z,100042.59
2023-03-24T21:22:07.374Z,100045.53
2023-03-24T21:25:11.016Z,100043.25
2023-03-24T21:28:14.544Z,100037.34
2023-03-24T21:31:23.294Z,100040.47
2023-03-24T21:34:26.825Z,100035.63
2023-03-24T21:37:30.485Z,100040.00
2023-03-24T21:40:34.183Z,100052.72
2023-03-24T21:43:40.471Z,100040.22
2023-03-24T21:46:47.729Z,100039.19
2023-03-24T21:49:53.201Z,100033.84
2023-03-24T21:52:57.271Z,100034.97
2023-03-24T21:56:04.586Z,100041.03
2023-03-24T21:59:08.332Z,100024.06
2023-03-24T22:02:17.283Z,100017.44
2023-03-24T22:05:23.624Z,100024.84
2023-03-24T22:08:30.566Z,100008.97
2023-03-24T22:11:34.979Z,100023.13
2023-03-24T22:14:38.524Z,100015.34
2023-03-24T22:17:43.470Z,100015.34
2023-03-24T22:20:55.349Z,100014.09
2023-03-24T22:23:58.801Z,100011.56
2023-03-24T22:27:02.263Z,100011.91
2023-03-24T22:30:08.078Z,100004.09
2023-03-24T22:33:12.985Z,100002.44
2023-03-24T22:36:16.725Z,100005.03
2023-03-24T22:39:21.452Z,100005.69
2023-03-24T22:42:25.336Z,100006.19
2023-03-24T22:45:28.860Z,100005.38
2023-03-24T22:48:33.999Z,100006.13
2023-03-24T22:51:37.571Z,100007.84
2023-03-24T22:54:41.708Z,100003.59
2023-03-24T22:57:45.178Z,100005.44
2023-03-24T23:00:51.555Z,100003.72
2023-03-24T23:03:56.445Z,100002.88
2023-03-24T23:06:59.932Z,100003.78
2023-03-24T23:10:06.452Z,99995.50
2023-03-24T23:13:10.464Z,100003.44
2023-03-24T23:16:14.101Z,99999.88
2023-03-24T23:19:19.743Z,100004.78
2023-03-24T23:22:23.590Z,100002.88
2023-03-24T23:25:30.572Z,100004.53
2023-03-24T23:28:35.847Z,100003.44
2023-03-24T23:31:41.161Z,99997.28
2023-03-24T23:34:48.770Z,99997.34
2023-03-24T23:37:52.560Z,100001.72
2023-03-24T23:40:56.299Z,100002.56
2023-03-24T23:44:00.060Z,100005.13
2023-03-24T23:47:03.588Z,100002.63
2023-03-24T23:50:10.599Z,100002.69
2023-03-24T23:53:14.138Z,99997.53
2023-03-24T23:56:21.321Z,99989.75
2023-03-24T23:59:24.831Z,99989.56
